Mazeppa, Minnesota
Current Conditions -  °F | °C
As of 9:14 PM on Monday 20 Oct 2014 (Local Time) from K9MN Reporting Station
Clear Clear  
Wind Chill: 52°   Ceiling: Unl
Heat Index: 52°   Visibility: 10mi
Dew Point: 39°   Wind: 3mph
Humidity: 60%   Direction: 20°NNE
Pressure: 30.05"   Gusts: NA
Location:  44.27°N, 92.54°W
Report Text: K9MN 210214Z AUTO 02003KT 10SM CLR 11/04 A3005 RMK AO1 T01120037
Loading
Personal Weather Stations






























Interactive Weather Map
Tropical Storm Tracking
New forecast layout! Learn more

10-Day Weather Forecast

Advertisements
Track Severe Weather on mobile